sensor_id;sensor_type;location;lat;lon;timestamp;pressure;altitude;pressure_sealevel;temperature;humidity
66857;BME280;53766;50.280;19.160;2022-07-23T00:00:32;98479.47;;;29.94;35.96
66857;BME280;53766;50.280;19.160;2022-07-23T00:03:06;98479.47;;;29.94;36.11
66857;BME280;53766;50.280;19.160;2022-07-23T00:05:34;98485.16;;;29.93;36.14
66857;BME280;53766;50.280;19.160;2022-07-23T00:08:05;98487.88;;;29.93;35.96
66857;BME280;53766;50.280;19.160;2022-07-23T00:10:40;98487.88;;;29.93;36.06
66857;BME280;53766;50.280;19.160;2022-07-23T00:13:08;98490.88;;;29.91;35.94
66857;BME280;53766;50.280;19.160;2022-07-23T00:15:36;98496.28;;;29.91;36.32
66857;BME280;53766;50.280;19.160;2022-07-23T00:18:04;98489.25;;;29.90;35.94
66857;BME280;53766;50.280;19.160;2022-07-23T00:20:31;98491.66;;;29.92;36.01
66857;BME280;53766;50.280;19.160;2022-07-23T00:22:58;98497.09;;;29.92;36.28
66857;BME280;53766;50.280;19.160;2022-07-23T00:25:27;98489.25;;;29.90;36.33
66857;BME280;53766;50.280;19.160;2022-07-23T00:27:58;98490.88;;;29.91;36.00
66857;BME280;53766;50.280;19.160;2022-07-23T00:30:26;98483.81;;;29.90;36.37
66857;BME280;53766;50.280;19.160;2022-07-23T00:33:01;98488.44;;;29.90;36.12
66857;BME280;53766;50.280;19.160;2022-07-23T00:35:32;98487.63;;;29.89;36.10
66857;BME280;53766;50.280;19.160;2022-07-23T00:38:02;98488.44;;;29.90;36.29
66857;BME280;53766;50.280;19.160;2022-07-23T00:40:30;98484.09;;;29.89;36.02
66857;BME280;53766;50.280;19.160;2022-07-23T00:42:58;98479.78;;;29.88;36.33
66857;BME280;53766;50.280;19.160;2022-07-23T00:45:27;98477.88;;;29.88;36.45
66857;BME280;53766;50.280;19.160;2022-07-23T00:47:55;98488.72;;;29.88;36.42
66857;BME280;53766;50.280;19.160;2022-07-23T00:50:22;98488.19;;;29.86;36.35
66857;BME280;53766;50.280;19.160;2022-07-23T00:52:51;98482.75;;;29.86;36.48
66857;BME280;53766;50.280;19.160;2022-07-23T00:55:19;98486.53;;;29.85;36.12
66857;BME280;53766;50.280;19.160;2022-07-23T00:57:47;98483.84;;;29.85;36.29
66857;BME280;53766;50.280;19.160;2022-07-23T01:00:15;98493.63;;;29.86;36.35
66857;BME280;53766;50.280;19.160;2022-07-23T01:02:43;98495.53;;;29.86;36.06
66857;BME280;53766;50.280;19.160;2022-07-23T01:05:11;98491.16;;;29.85;36.44
66857;BME280;53766;50.280;19.160;2022-07-23T01:07:40;98488.72;;;29.83;36.66
66857;BME280;53766;50.280;19.160;2022-07-23T01:10:07;98487.91;;;29.83;36.24
66857;BME280;53766;50.280;19.160;2022-07-23T01:13:04;98493.34;;;29.83;36.13
66857;BME280;53766;50.280;19.160;2022-07-23T01:15:33;98489.84;;;29.82;36.56
66857;BME280;53766;50.280;19.160;2022-07-23T01:18:02;98487.13;;;29.82;36.27
66857;BME280;53766;50.280;19.160;2022-07-23T01:20:31;98495.25;;;29.82;36.26
66857;BME280;53766;50.280;19.160;2022-07-23T01:22:59;98494.16;;;29.83;36.33
66857;BME280;53766;50.280;19.160;2022-07-23T01:25:27;98492.28;;;29.84;36.20
66857;BME280;53766;50.280;19.160;2022-07-23T01:27:54;98488.72;;;29.83;36.25
66857;BME280;53766;50.280;19.160;2022-07-23T01:30:22;98487.91;;;29.83;36.63
66857;BME280;53766;50.280;19.160;2022-07-23T01:32:50;98485.50;;;29.81;36.29
66857;BME280;53766;50.280;19.160;2022-07-23T01:35:17;98481.69;;;29.82;36.28
66857;BME280;53766;50.280;19.160;2022-07-23T01:37:45;98477.06;;;29.83;36.31
66857;BME280;53766;50.280;19.160;2022-07-23T01:40:13;98476.25;;;29.82;36.57
66857;BME280;53766;50.280;19.160;2022-07-23T01:42:40;98480.06;;;29.81;36.67
66857;BME280;53766;50.280;19.160;2022-07-23T01:45:08;98476.53;;;29.81;36.56
66857;BME280;53766;50.280;19.160;2022-07-23T01:47:36;98478.44;;;29.80;36.33
66857;BME280;53766;50.280;19.160;2022-07-23T01:50:04;98481.16;;;29.80;36.62
66857;BME280;53766;50.280;19.160;2022-07-23T01:52:32;98486.84;;;29.79;36.55
66857;BME280;53766;50.280;19.160;2022-07-23T01:54:59;98489.88;;;29.77;36.73
66857;BME280;53766;50.280;19.160;2022-07-23T01:57:27;98491.75;;;29.77;36.89
66857;BME280;53766;50.280;19.160;2022-07-23T01:59:54;98499.09;;;29.76;36.55
66857;BME280;53766;50.280;19.160;2022-07-23T02:02:22;98490.41;;;29.74;36.60
66857;BME280;53766;50.280;19.160;2022-07-23T02:04:50;98487.41;;;29.76;36.41
66857;BME280;53766;50.280;19.160;2022-07-23T02:07:17;98487.41;;;29.76;36.81
66857;BME280;53766;50.280;19.160;2022-07-23T02:09:45;98486.63;;;29.75;36.78
66857;BME280;53766;50.280;19.160;2022-07-23T02:12:13;98486.63;;;29.75;36.57
66857;BME280;53766;50.280;19.160;2022-07-23T02:14:41;98492.03;;;29.75;36.43
66857;BME280;53766;50.280;19.160;2022-07-23T02:17:10;98490.41;;;29.74;36.83
66857;BME280;53766;50.280;19.160;2022-07-23T02:19:38;98486.06;;;29.73;36.87
66857;BME280;53766;50.280;19.160;2022-07-23T02:22:05;98484.44;;;29.72;36.54
66857;BME280;53766;50.280;19.160;2022-07-23T02:24:33;98484.97;;;29.74;36.82
66857;BME280;53766;50.280;19.160;2022-07-23T02:27:01;98490.41;;;29.74;36.52
66857;BME280;53766;50.280;19.160;2022-07-23T02:29:28;98486.34;;;29.71;36.61
66857;BME280;53766;50.280;19.160;2022-07-23T02:31:57;98496.41;;;29.71;36.70
66857;BME280;53766;50.280;19.160;2022-07-23T02:34:25;98491.78;;;29.71;36.52
66857;BME280;53766;50.280;19.160;2022-07-23T02:36:52;98489.31;;;29.70;36.82
66857;BME280;53766;50.280;19.160;2022-07-23T02:39:20;98497.19;;;29.71;36.82
66857;BME280;53766;50.280;19.160;2022-07-23T02:41:47;98490.16;;;29.70;36.90
66857;BME280;53766;50.280;19.160;2022-07-23T02:44:15;98487.16;;;29.72;36.82
66857;BME280;53766;50.280;19.160;2022-07-23T02:46:42;98489.06;;;29.71;36.57
66857;BME280;53766;50.280;19.160;2022-07-23T02:49:10;98493.69;;;29.71;36.59
66857;BME280;53766;50.280;19.160;2022-07-23T02:51:38;98483.91;;;29.70;36.82
66857;BME280;53766;50.280;19.160;2022-07-23T02:54:05;98483.91;;;29.70;36.65
66857;BME280;53766;50.280;19.160;2022-07-23T02:56:33;98487.72;;;29.69;36.91
66857;BME280;53766;50.280;19.160;2022-07-23T02:59:01;98476.88;;;29.69;36.67
66857;BME280;53766;50.280;19.160;2022-07-23T03:01:29;98472.47;;;29.68;36.92
66857;BME280;53766;50.280;19.160;2022-07-23T03:03:57;98473.56;;;29.67;36.74
66857;BME280;53766;50.280;19.160;2022-07-23T03:06:24;98464.34;;;29.68;36.83
66857;BME280;53766;50.280;19.160;2022-07-23T03:08:52;98459.75;;;29.68;36.83
66857;BME280;53766;50.280;19.160;2022-07-23T03:11:20;98457.88;;;29.69;36.78
66857;BME280;53766;50.280;19.160;2022-07-23T03:13:48;98455.16;;;29.69;36.62
66857;BME280;53766;50.280;19.160;2022-07-23T03:16:16;98464.34;;;29.68;36.70
66857;BME280;53766;50.280;19.160;2022-07-23T03:18:44;98469.22;;;29.66;36.85
66857;BME280;53766;50.280;19.160;2022-07-23T03:21:12;98468.16;;;29.67;36.62
66857;BME280;53766;50.280;19.160;2022-07-23T03:23:40;98466.00;;;29.69;36.82
66857;BME280;53766;50.280;19.160;2022-07-23T03:26:08;98460.56;;;29.69;36.54
66857;BME280;53766;50.280;19.160;2022-07-23T03:28:35;98469.22;;;29.66;36.97
66857;BME280;53766;50.280;19.160;2022-07-23T03:31:03;98468.72;;;29.64;36.97
66857;BME280;53766;50.280;19.160;2022-07-23T03:33:30;98468.72;;;29.64;36.75
66857;BME280;53766;50.280;19.160;2022-07-23T03:35:58;98470.34;;;29.65;36.72
66857;BME280;53766;50.280;19.160;2022-07-23T03:38:26;98469.22;;;29.66;36.59
66857;BME280;53766;50.280;19.160;2022-07-23T03:40:54;98468.72;;;29.69;36.93
66857;BME280;53766;50.280;19.160;2022-07-23T03:43:21;98460.56;;;29.69;36.94
66857;BME280;53766;50.280;19.160;2022-07-23T03:45:51;98462.47;;;29.68;36.88
66857;BME280;53766;50.280;19.160;2022-07-23T03:48:19;98458.09;;;29.67;36.86
66857;BME280;53766;50.280;19.160;2022-07-23T03:50:47;98465.44;;;29.67;37.06
66857;BME280;53766;50.280;19.160;2022-07-23T03:53:15;98461.91;;;29.66;37.01
66857;BME280;53766;50.280;19.160;2022-07-23T03:55:42;98468.16;;;29.67;36.61
66857;BME280;53766;50.280;19.160;2022-07-23T03:58:09;98468.72;;;29.69;37.02
66857;BME280;53766;50.280;19.160;2022-07-23T04:00:37;98473.56;;;29.72;36.96
66857;BME280;53766;50.280;19.160;2022-07-23T04:03:05;98469.25;;;29.71;36.69
66857;BME280;53766;50.280;19.160;2022-07-23T04:05:33;98470.34;;;29.70;36.69
66857;BME280;53766;50.280;19.160;2022-07-23T04:08:00;98462.19;;;29.70;37.00
66857;BME280;53766;50.280;19.160;2022-07-23T04:10:28;98469.25;;;29.71;36.80
66857;BME280;53766;50.280;19.160;2022-07-23T04:12:55;98475.75;;;29.70;37.07
66857;BME280;53766;50.280;19.160;2022-07-23T04:15:23;98487.72;;;29.69;36.97
66857;BME280;53766;50.280;19.160;2022-07-23T04:17:50;98478.47;;;29.70;37.06
66857;BME280;53766;50.280;19.160;2022-07-23T04:20:18;98481.72;;;29.72;36.72
66857;BME280;53766;50.280;19.160;2022-07-23T04:22:46;98480.09;;;29.71;36.90
66857;BME280;53766;50.280;19.160;2022-07-23T04:25:13;98487.16;;;29.72;36.77
66857;BME280;53766;50.280;19.160;2022-07-23T04:27:43;98483.38;;;29.73;36.82
66857;BME280;53766;50.280;19.160;2022-07-23T04:30:11;98476.03;;;29.73;37.19
66857;BME280;53766;50.280;19.160;2022-07-23T04:32:39;98481.19;;;29.75;36.81
66857;BME280;53766;50.280;19.160;2022-07-23T04:35:07;98474.13;;;29.74;36.83
66857;BME280;53766;50.280;19.160;2022-07-23T04:37:35;98467.31;;;29.77;36.84
66857;BME280;53766;50.280;19.160;2022-07-23T04:40:03;98471.13;;;29.76;37.24
66857;BME280;53766;50.280;19.160;2022-07-23T04:42:31;98473.03;;;29.75;37.05
66857;BME280;53766;50.280;19.160;2022-07-23T04:44:58;98481.19;;;29.75;37.22
66857;BME280;53766;50.280;19.160;2022-07-23T04:47:26;98465.44;;;29.77;37.17
66857;BME280;53766;50.280;19.160;2022-07-23T04:49:54;98467.03;;;29.78;37.14
66857;BME280;53766;50.280;19.160;2022-07-23T04:52:23;98474.13;;;29.79;37.40
66857;BME280;53766;50.280;19.160;2022-07-23T04:54:51;98473.00;;;29.80;37.48
66857;BME280;53766;50.280;19.160;2022-07-23T04:57:19;98468.13;;;29.82;37.13
66857;BME280;53766;50.280;19.160;2022-07-23T04:59:46;98464.28;;;29.83;37.25
66857;BME280;53766;50.280;19.160;2022-07-23T05:02:14;98469.72;;;29.83;37.48
66857;BME280;53766;50.280;19.160;2022-07-23T05:04:41;98478.97;;;29.82;37.32
66857;BME280;53766;50.280;19.160;2022-07-23T05:07:11;98474.66;;;29.81;37.53
66857;BME280;53766;50.280;19.160;2022-07-23T05:09:39;98478.97;;;29.82;37.45
66857;BME280;53766;50.280;19.160;2022-07-23T05:12:07;98465.41;;;29.82;37.54
66857;BME280;53766;50.280;19.160;2022-07-23T05:14:35;98467.56;;;29.80;37.91
66857;BME280;53766;50.280;19.160;2022-07-23T05:17:02;98470.28;;;29.80;37.69
66857;BME280;53766;50.280;19.160;2022-07-23T05:19:30;98474.06;;;29.84;37.50
66857;BME280;53766;50.280;19.160;2022-07-23T05:21:58;98476.75;;;29.89;37.35
66857;BME280;53766;50.280;19.160;2022-07-23T05:24:25;98472.41;;;29.93;37.26
66857;BME280;53766;50.280;19.160;2022-07-23T05:26:53;98470.47;;;29.99;37.44
66857;BME280;53766;50.280;19.160;2022-07-23T05:29:23;98467.72;;;30.04;37.70
66857;BME280;53766;50.280;19.160;2022-07-23T05:31:50;98460.38;;;30.10;37.60
66857;BME280;53766;50.280;19.160;2022-07-23T05:34:18;98463.03;;;30.15;37.35
66857;BME280;53766;50.280;19.160;2022-07-23T05:36:45;98461.66;;;30.18;37.34
66857;BME280;53766;50.280;19.160;2022-07-23T05:39:13;98462.47;;;30.18;37.40
66857;BME280;53766;50.280;19.160;2022-07-23T05:41:40;98452.72;;;30.17;37.63
66857;BME280;53766;50.280;19.160;2022-07-23T05:44:09;98456.22;;;30.18;37.47
66857;BME280;53766;50.280;19.160;2022-07-23T05:46:37;98459.25;;;30.16;37.54
66857;BME280;53766;50.280;19.160;2022-07-23T05:49:04;98456.22;;;30.18;37.73
66857;BME280;53766;50.280;19.160;2022-07-23T05:51:33;98454.38;;;30.13;37.56
66857;BME280;53766;50.280;19.160;2022-07-23T05:54:01;98447.31;;;30.12;37.60
66857;BME280;53766;50.280;19.160;2022-07-23T05:56:28;98442.44;;;30.14;37.63
66857;BME280;53766;50.280;19.160;2022-07-23T05:58:56;98437.25;;;30.12;37.53
66857;BME280;53766;50.280;19.160;2022-07-23T06:01:23;98432.63;;;30.13;38.03
66857;BME280;53766;50.280;19.160;2022-07-23T06:03:51;98425.88;;;30.10;37.85
66857;BME280;53766;50.280;19.160;2022-07-23T06:06:19;98426.16;;;30.09;37.55
66857;BME280;53766;50.280;19.160;2022-07-23T06:08:47;98427.78;;;30.10;38.15
66857;BME280;53766;50.280;19.160;2022-07-23T06:11:14;98426.16;;;30.09;37.92
66857;BME280;53766;50.280;19.160;2022-07-23T06:13:42;98415.28;;;30.09;38.02
66857;BME280;53766;50.280;19.160;2022-07-23T06:16:09;98420.72;;;30.09;37.96
66857;BME280;53766;50.280;19.160;2022-07-23T06:18:37;98419.09;;;30.08;38.18
66857;BME280;53766;50.280;19.160;2022-07-23T06:21:05;98412.88;;;30.07;38.20
66857;BME280;53766;50.280;19.160;2022-07-23T06:23:52;98412.56;;;30.09;38.21
66857;BME280;53766;50.280;19.160;2022-07-23T06:26:20;98403.63;;;30.08;37.95
66857;BME280;53766;50.280;19.160;2022-07-23T06:28:47;98400.63;;;30.10;38.20
66857;BME280;53766;50.280;19.160;2022-07-23T06:31:15;98401.16;;;30.12;38.41
66857;BME280;53766;50.280;19.160;2022-07-23T06:33:43;98401.44;;;30.10;38.33
66857;BME280;53766;50.280;19.160;2022-07-23T06:36:10;98401.69;;;30.09;37.89
66857;BME280;53766;50.280;19.160;2022-07-23T06:38:37;98398.19;;;30.08;38.59
66857;BME280;53766;50.280;19.160;2022-07-23T06:41:05;98408.25;;;30.08;38.21
66857;BME280;53766;50.280;19.160;2022-07-23T06:43:33;98398.97;;;30.09;38.27
66857;BME280;53766;50.280;19.160;2022-07-23T06:46:00;98403.34;;;30.05;38.72
66857;BME280;53766;50.280;19.160;2022-07-23T06:48:28;98402.00;;;30.07;38.62
66857;BME280;53766;50.280;19.160;2022-07-23T06:50:56;98402.22;;;30.11;38.39
66857;BME280;53766;50.280;19.160;2022-07-23T06:53:23;98405.47;;;30.13;38.46
66857;BME280;53766;50.280;19.160;2022-07-23T06:55:51;98410.09;;;30.12;38.39
66857;BME280;53766;50.280;19.160;2022-07-23T06:58:19;98405.47;;;30.13;38.25
66857;BME280;53766;50.280;19.160;2022-07-23T07:00:47;98407.13;;;30.14;38.39
66857;BME280;53766;50.280;19.160;2022-07-23T07:03:16;98406.53;;;30.17;38.51
66857;BME280;53766;50.280;19.160;2022-07-23T07:05:44;98406.53;;;30.17;38.27
66857;BME280;53766;50.280;19.160;2022-07-23T07:08:13;98412.50;;;30.19;38.61
66857;BME280;53766;50.280;19.160;2022-07-23T07:10:41;98408.69;;;30.20;38.36
66857;BME280;53766;50.280;19.160;2022-07-23T07:13:08;98407.59;;;30.21;38.57
66857;BME280;53766;50.280;19.160;2022-07-23T07:15:36;98415.16;;;30.24;38.55
66857;BME280;53766;50.280;19.160;2022-07-23T07:18:04;98412.47;;;30.24;38.25
66857;BME280;53766;50.280;19.160;2022-07-23T07:20:32;98409.75;;;30.24;38.32
66857;BME280;53766;50.280;19.160;2022-07-23T07:22:59;98404.31;;;30.24;38.61
66857;BME280;53766;50.280;19.160;2022-07-23T07:25:27;98404.03;;;30.26;38.48
66857;BME280;53766;50.280;19.160;2022-07-23T07:27:54;98399.41;;;30.26;38.37
66857;BME280;53766;50.280;19.160;2022-07-23T07:30:22;98404.84;;;30.26;38.44
66857;BME280;53766;50.280;19.160;2022-07-23T07:32:50;98410.56;;;30.30;38.44
66857;BME280;53766;50.280;19.160;2022-07-23T07:35:24;98405.94;;;30.30;38.15
66857;BME280;53766;50.280;19.160;2022-07-23T07:37:52;98405.13;;;30.30;38.21
66857;BME280;53766;50.280;19.160;2022-07-23T07:40:19;98398.31;;;30.32;38.47
66857;BME280;53766;50.280;19.160;2022-07-23T07:42:49;98402.66;;;30.33;38.45
66857;BME280;53766;50.280;19.160;2022-07-23T07:45:17;98405.66;;;30.32;38.31
66857;BME280;53766;50.280;19.160;2022-07-23T07:47:47;98413.00;;;30.31;38.08
66857;BME280;53766;50.280;19.160;2022-07-23T07:50:15;98409.97;;;30.33;38.51
66857;BME280;53766;50.280;19.160;2022-07-23T07:52:43;98422.47;;;30.34;38.27
66857;BME280;53766;50.280;19.160;2022-07-23T07:55:11;98414.03;;;30.35;38.13
66857;BME280;53766;50.280;19.160;2022-07-23T07:57:39;98416.47;;;30.37;38.34
66857;BME280;53766;50.280;19.160;2022-07-23T08:00:09;98418.09;;;30.38;38.17
66857;BME280;53766;50.280;19.160;2022-07-23T08:05:08;98412.63;;;30.43;38.21
66857;BME280;53766;50.280;19.160;2022-07-23T08:07:37;98423.75;;;30.42;38.08
66857;BME280;53766;50.280;19.160;2022-07-23T08:10:08;98411.00;;;30.42;38.38
66857;BME280;53766;50.280;19.160;2022-07-23T08:12:45;98423.22;;;30.45;38.30
66857;BME280;53766;50.280;19.160;2022-07-23T08:15:15;98411.50;;;30.44;38.38
66857;BME280;53766;50.280;19.160;2022-07-23T08:17:44;98407.47;;;30.42;38.43
66857;BME280;53766;50.280;19.160;2022-07-23T08:20:14;98401.47;;;30.45;38.14
66857;BME280;53766;50.280;19.160;2022-07-23T08:22:49;98391.41;;;30.45;38.02
66857;BME280;53766;50.280;19.160;2022-07-23T08:25:31;98383.78;;;30.47;37.96
66857;BME280;53766;50.280;19.160;2022-07-23T08:28:00;98375.34;;;30.49;37.85
66857;BME280;53766;50.280;19.160;2022-07-23T08:30:29;98376.97;;;30.50;38.06
66857;BME280;53766;50.280;19.160;2022-07-23T08:33:00;98373.16;;;30.51;37.71
66857;BME280;53766;50.280;19.160;2022-07-23T08:35:29;98370.44;;;30.51;37.66
66857;BME280;53766;50.280;19.160;2022-07-23T08:37:58;98374.78;;;30.52;37.91
66857;BME280;53766;50.280;19.160;2022-07-23T08:40:27;98359.28;;;30.52;37.88
66857;BME280;53766;50.280;19.160;2022-07-23T08:42:55;98357.88;;;30.55;38.04
66857;BME280;53766;50.280;19.160;2022-07-23T08:45:24;98358.47;;;30.52;37.67
66857;BME280;53766;50.280;19.160;2022-07-23T08:47:57;98354.63;;;30.53;37.63
66857;BME280;53766;50.280;19.160;2022-07-23T08:50:32;98361.72;;;30.54;37.45
66857;BME280;53766;50.280;19.160;2022-07-23T08:53:06;98366.34;;;30.53;37.68
66857;BME280;53766;50.280;19.160;2022-07-23T08:55:35;98368.75;;;30.55;37.73
66857;BME280;53766;50.280;19.160;2022-07-23T08:58:02;98372.00;;;30.57;37.73
66857;BME280;53766;50.280;19.160;2022-07-23T09:00:30;98366.56;;;30.57;37.24
66857;BME280;53766;50.280;19.160;2022-07-23T09:02:58;98372.00;;;30.57;37.21
66857;BME280;53766;50.280;19.160;2022-07-23T09:05:26;98364.38;;;30.59;37.15
66857;BME280;53766;50.280;19.160;2022-07-23T09:08:14;98364.09;;;30.61;37.52
66857;BME280;53766;50.280;19.160;2022-07-23T09:16:36;98372.50;;;30.64;37.21
66857;BME280;53766;50.280;19.160;2022-07-23T09:19:04;98373.31;;;30.65;36.82
66857;BME280;53766;50.280;19.160;2022-07-23T09:21:34;98376.81;;;30.65;37.10
66857;BME280;53766;50.280;19.160;2022-07-23T09:24:05;98381.69;;;30.68;36.88
66857;BME280;53766;50.280;19.160;2022-07-23T09:26:43;98375.16;;;30.69;36.72
66857;BME280;53766;50.280;19.160;2022-07-23T09:29:18;98368.91;;;30.69;36.66
66857;BME280;53766;50.280;19.160;2022-07-23T09:34:21;98368.13;;;30.68;36.68
66857;BME280;53766;50.280;19.160;2022-07-23T09:36:54;98367.81;;;30.70;36.54
66857;BME280;53766;50.280;19.160;2022-07-23T09:39:30;98360.69;;;30.74;35.99
66857;BME280;53766;50.280;19.160;2022-07-23T09:42:21;98362.03;;;30.76;35.87
66857;BME280;53766;50.280;19.160;2022-07-23T09:44:53;98370.72;;;30.79;35.81
66857;BME280;53766;50.280;19.160;2022-07-23T09:47:23;98366.59;;;30.81;35.84
66857;BME280;53766;50.280;19.160;2022-07-23T09:50:00;98359.78;;;30.84;35.89
66857;BME280;53766;50.280;19.160;2022-07-23T09:52:31;98357.63;;;30.86;36.06
66857;BME280;53766;50.280;19.160;2022-07-23T09:55:06;98363.06;;;30.86;35.81
66857;BME280;53766;50.280;19.160;2022-07-23T09:57:34;98364.69;;;30.87;35.96
66857;BME280;53766;50.280;19.160;2022-07-23T10:00:04;98364.09;;;30.90;35.87
66857;BME280;53766;50.280;19.160;2022-07-23T10:02:33;98353.81;;;30.87;35.58
66857;BME280;53766;50.280;19.160;2022-07-23T10:05:02;98358.16;;;30.83;34.90
66857;BME280;53766;50.280;19.160;2022-07-23T10:07:37;98347.03;;;30.79;34.43
66857;BME280;53766;50.280;19.160;2022-07-23T10:10:06;98347.88;;;30.80;34.74
66857;BME280;53766;50.280;19.160;2022-07-23T10:12:34;98344.03;;;30.81;34.55
66857;BME280;53766;50.280;19.160;2022-07-23T10:15:06;98350.00;;;30.83;34.53
66857;BME280;53766;50.280;19.160;2022-07-23T10:17:34;98341.31;;;30.86;34.72
66857;BME280;53766;50.280;19.160;2022-07-23T10:20:04;98336.09;;;30.89;34.70
66857;BME280;53766;50.280;19.160;2022-07-23T10:22:38;98340.72;;;30.89;35.11
66857;BME280;53766;50.280;19.160;2022-07-23T10:28:48;98339.06;;;30.93;35.18
66857;BME280;53766;50.280;19.160;2022-07-23T10:31:38;98338.47;;;30.96;34.80
66857;BME280;53766;50.280;19.160;2022-07-23T10:37:34;98330.81;;;30.98;34.89
66857;BME280;53766;50.280;19.160;2022-07-23T10:40:15;98328.34;;;31.02;34.57
66857;BME280;53766;50.280;19.160;2022-07-23T10:42:46;98323.72;;;31.02;34.91
66857;BME280;53766;50.280;19.160;2022-07-23T10:45:35;98334.00;;;31.05;34.92
66857;BME280;53766;50.280;19.160;2022-07-23T10:48:21;98325.56;;;31.07;34.60
66857;BME280;53766;50.280;19.160;2022-07-23T10:51:09;98326.88;;;31.09;34.85
66857;BME280;53766;50.280;19.160;2022-07-23T10:59:23;98315.72;;;31.11;34.87
66857;BME280;53766;50.280;19.160;2022-07-23T11:01:50;98317.91;;;31.09;34.28
66857;BME280;53766;50.280;19.160;2022-07-23T11:04:19;98317.69;;;31.05;34.15
66857;BME280;53766;50.280;19.160;2022-07-23T11:09:39;98310.13;;;31.02;34.29
66857;BME280;53766;50.280;19.160;2022-07-23T11:17:27;98311.59;;;31.13;34.19
66857;BME280;53766;50.280;19.160;2022-07-23T11:27:50;98293.03;;;31.21;33.78
66857;BME280;53766;50.280;19.160;2022-07-23T11:35:38;98283.16;;;31.25;34.12
66857;BME280;53766;50.280;19.160;2022-07-23T11:38:18;98282.59;;;31.28;33.88
66857;BME280;53766;50.280;19.160;2022-07-23T11:40:49;98280.38;;;31.30;33.75
66857;BME280;53766;50.280;19.160;2022-07-23T11:43:18;98278.97;;;31.32;33.70
66857;BME280;53766;50.280;19.160;2022-07-23T11:45:52;98271.63;;;31.33;33.97
66857;BME280;53766;50.280;19.160;2022-07-23T11:48:25;98265.09;;;31.34;34.06
66857;BME280;53766;50.280;19.160;2022-07-23T11:50:54;98268.34;;;31.36;33.97
66857;BME280;53766;50.280;19.160;2022-07-23T11:55:51;98263.69;;;31.36;34.14
66857;BME280;53766;50.280;19.160;2022-07-23T11:58:19;98262.28;;;31.39;33.81
66857;BME280;53766;50.280;19.160;2022-07-23T12:00:47;98273.19;;;31.39;33.73
66857;BME280;53766;50.280;19.160;2022-07-23T12:03:15;98257.38;;;31.41;33.57
66857;BME280;53766;50.280;19.160;2022-07-23T12:05:43;98254.66;;;31.41;33.41
66857;BME280;53766;50.280;19.160;2022-07-23T12:08:10;98250.84;;;31.42;33.44
66857;BME280;53766;50.280;19.160;2022-07-23T12:10:44;98251.66;;;31.43;33.43
66857;BME280;53766;50.280;19.160;2022-07-23T12:13:16;98246.47;;;31.41;33.34
66857;BME280;53766;50.280;19.160;2022-07-23T12:15:50;98240.78;;;31.43;33.38
66857;BME280;53766;50.280;19.160;2022-07-23T12:18:21;98239.94;;;31.42;32.87
66857;BME280;53766;50.280;19.160;2022-07-23T12:20:52;98232.06;;;31.41;32.44
66857;BME280;53766;50.280;19.160;2022-07-23T12:23:22;98246.47;;;31.41;32.82
66857;BME280;53766;50.280;19.160;2022-07-23T12:25:51;98243.75;;;31.41;32.71
66857;BME280;53766;50.280;19.160;2022-07-23T12:28:28;98241.59;;;31.43;32.53
66857;BME280;53766;50.280;19.160;2022-07-23T12:30:58;98230.44;;;31.40;32.22
66857;BME280;53766;50.280;19.160;2022-07-23T12:33:28;98234.03;;;31.35;32.99
66857;BME280;53766;50.280;19.160;2022-07-23T12:35:59;98225.97;;;31.30;32.77
66857;BME280;53766;50.280;19.160;2022-07-23T12:38:35;98229.25;;;31.27;32.63
66857;BME280;53766;50.280;19.160;2022-07-23T12:41:03;98220.28;;;31.26;33.02
66857;BME280;53766;50.280;19.160;2022-07-23T12:43:43;98215.66;;;31.27;33.34
66857;BME280;53766;50.280;19.160;2022-07-23T12:46:16;98211.06;;;31.27;33.03
66857;BME280;53766;50.280;19.160;2022-07-23T12:51:16;98209.41;;;31.26;33.55
66857;BME280;53766;50.280;19.160;2022-07-23T12:53:50;98203.75;;;31.23;33.24
66857;BME280;53766;50.280;19.160;2022-07-23T12:59:13;98191.88;;;31.19;33.53
66857;BME280;53766;50.280;19.160;2022-07-23T13:01:42;98198.91;;;31.20;33.45
66857;BME280;53766;50.280;19.160;2022-07-23T13:04:18;98200.53;;;31.21;33.92
66857;BME280;53766;50.280;19.160;2022-07-23T13:09:25;98191.88;;;31.19;34.04
66857;BME280;53766;50.280;19.160;2022-07-23T13:11:54;98190.22;;;31.17;33.92
66857;BME280;53766;50.280;19.160;2022-07-23T13:14:25;98196.19;;;31.20;33.93
66857;BME280;53766;50.280;19.160;2022-07-23T13:16:54;98195.66;;;31.17;33.81
66857;BME280;53766;50.280;19.160;2022-07-23T13:19:23;98201.09;;;31.17;33.68
66857;BME280;53766;50.280;19.160;2022-07-23T13:21:54;98198.38;;;31.17;33.68
66857;BME280;53766;50.280;19.160;2022-07-23T13:24:22;98190.22;;;31.17;33.29
66857;BME280;53766;50.280;19.160;2022-07-23T13:26:50;98187.00;;;31.15;33.63
66857;BME280;53766;50.280;19.160;2022-07-23T13:29:18;98185.38;;;31.14;33.37
66857;BME280;53766;50.280;19.160;2022-07-23T13:31:46;98180.53;;;31.11;33.31
66857;BME280;53766;50.280;19.160;2022-07-23T13:34:15;98175.69;;;31.08;32.83
66857;BME280;53766;50.280;19.160;2022-07-23T13:36:43;98167.53;;;31.08;33.00
66857;BME280;53766;50.280;19.160;2022-07-23T13:39:11;98159.94;;;31.05;32.36
66857;BME280;53766;50.280;19.160;2022-07-23T13:41:38;98162.66;;;31.05;32.59
66857;BME280;53766;50.280;19.160;2022-07-23T13:44:06;98159.94;;;31.05;32.70
66857;BME280;53766;50.280;19.160;2022-07-23T13:46:34;98179.81;;;31.06;32.67
66857;BME280;53766;50.280;19.160;2022-07-23T13:49:02;98183.59;;;31.05;33.08
66857;BME280;53766;50.280;19.160;2022-07-23T13:51:33;98189.38;;;31.03;32.47
66857;BME280;53766;50.280;19.160;2022-07-23T13:54:01;98197.00;;;31.01;32.95
66857;BME280;53766;50.280;19.160;2022-07-23T13:56:30;98216.88;;;30.96;32.89